sensor_id;sensor_type;location;lat;lon;timestamp;temperature;humidity
66708;DHT22;53622;0.000;0.000;2023-11-21T00:00:10;21.50;55.40
66708;DHT22;53622;0.000;0.000;2023-11-21T00:02:41;21.50;55.40
66708;DHT22;53622;0.000;0.000;2023-11-21T00:05:12;21.50;55.50
66708;DHT22;53622;0.000;0.000;2023-11-21T00:07:42;21.50;55.60
66708;DHT22;53622;0.000;0.000;2023-11-21T00:10:12;21.50;55.40
66708;DHT22;53622;0.000;0.000;2023-11-21T00:12:43;21.50;55.40
66708;DHT22;53622;0.000;0.000;2023-11-21T00:15:12;21.50;55.30
66708;DHT22;53622;0.000;0.000;2023-11-21T00:17:41;21.50;55.40
66708;DHT22;53622;0.000;0.000;2023-11-21T00:20:11;21.50;55.30
66708;DHT22;53622;0.000;0.000;2023-11-21T00:22:41;21.50;55.30
66708;DHT22;53622;0.000;0.000;2023-11-21T00:25:10;21.50;55.40
66708;DHT22;53622;0.000;0.000;2023-11-21T00:27:40;21.40;55.40
66708;DHT22;53622;0.000;0.000;2023-11-21T00:30:10;21.40;55.40
66708;DHT22;53622;0.000;0.000;2023-11-21T00:32:39;21.40;55.40
66708;DHT22;53622;0.000;0.000;2023-11-21T00:35:08;21.40;55.40
66708;DHT22;53622;0.000;0.000;2023-11-21T00:37:38;21.40;55.40
66708;DHT22;53622;0.000;0.000;2023-11-21T00:40:08;21.40;55.40
66708;DHT22;53622;0.000;0.000;2023-11-21T00:45:07;21.40;90.20
66708;DHT22;53622;0.000;0.000;2023-11-21T00:52:38;21.30;95.20
66708;DHT22;53622;0.000;0.000;2023-11-21T00:55:08;21.10;86.20
66708;DHT22;53622;0.000;0.000;2023-11-21T01:00:08;21.10;86.60
66708;DHT22;53622;0.000;0.000;2023-11-21T01:02:41;21.30;97.40
66708;DHT22;53622;0.000;0.000;2023-11-21T01:05:10;21.20;83.40
66708;DHT22;53622;0.000;0.000;2023-11-21T01:07:41;21.20;55.70
66708;DHT22;53622;0.000;0.000;2023-11-21T01:10:10;21.20;55.70
66708;DHT22;53622;0.000;0.000;2023-11-21T01:12:39;21.10;96.90
66708;DHT22;53622;0.000;0.000;2023-11-21T01:15:09;21.20;55.70
66708;DHT22;53622;0.000;0.000;2023-11-21T01:20:10;21.20;95.70
66708;DHT22;53622;0.000;0.000;2023-11-21T01:22:42;21.20;75.10
66708;DHT22;53622;0.000;0.000;2023-11-21T01:25:12;21.10;55.00
66708;DHT22;53622;0.000;0.000;2023-11-21T01:27:43;21.10;55.60
66708;DHT22;53622;0.000;0.000;2023-11-21T01:32:40;21.10;95.80
66708;DHT22;53622;0.000;0.000;2023-11-21T01:40:09;21.00;78.70
66708;DHT22;53622;0.000;0.000;2023-11-21T01:42:42;21.00;93.70
66708;DHT22;53622;0.000;0.000;2023-11-21T01:45:12;21.00;55.70
66708;DHT22;53622;0.000;0.000;2023-11-21T01:47:42;21.00;55.40
66708;DHT22;53622;0.000;0.000;2023-11-21T01:50:16;21.00;90.80
66708;DHT22;53622;0.000;0.000;2023-11-21T01:52:46;21.10;81.50
66708;DHT22;53622;0.000;0.000;2023-11-21T01:55:18;21.00;89.30
66708;DHT22;53622;0.000;0.000;2023-11-21T01:57:55;21.00;63.20
66708;DHT22;53622;0.000;0.000;2023-11-21T02:10:25;20.90;91.00
66708;DHT22;53622;0.000;0.000;2023-11-21T02:12:54;21.00;95.80
66708;DHT22;53622;0.000;0.000;2023-11-21T02:15:23;20.80;91.90
66708;DHT22;53622;0.000;0.000;2023-11-21T02:17:56;20.80;69.60
66708;DHT22;53622;0.000;0.000;2023-11-21T02:20:27;21.00;83.20
66708;DHT22;53622;0.000;0.000;2023-11-21T02:22:58;20.90;55.80
66708;DHT22;53622;0.000;0.000;2023-11-21T02:25:29;20.90;55.80
66708;DHT22;53622;0.000;0.000;2023-11-21T02:28:00;20.90;55.80
66708;DHT22;53622;0.000;0.000;2023-11-21T02:30:30;20.90;55.70
66708;DHT22;53622;0.000;0.000;2023-11-21T02:33:00;21.00;55.70
66708;DHT22;53622;0.000;0.000;2023-11-21T02:35:31;21.00;55.60
66708;DHT22;53622;0.000;0.000;2023-11-21T02:38:01;21.00;55.70
66708;DHT22;53622;0.000;0.000;2023-11-21T02:40:30;20.90;55.50
66708;DHT22;53622;0.000;0.000;2023-11-21T02:42:59;20.90;55.40
66708;DHT22;53622;0.000;0.000;2023-11-21T02:45:28;20.90;55.60
66708;DHT22;53622;0.000;0.000;2023-11-21T02:47:56;20.90;55.40
66708;DHT22;53622;0.000;0.000;2023-11-21T02:50:26;20.90;55.40
66708;DHT22;53622;0.000;0.000;2023-11-21T02:52:55;20.90;55.30
66708;DHT22;53622;0.000;0.000;2023-11-21T02:55:29;20.90;55.30
66708;DHT22;53622;0.000;0.000;2023-11-21T02:57:58;20.90;55.40
66708;DHT22;53622;0.000;0.000;2023-11-21T03:00:27;20.90;55.30
66708;DHT22;53622;0.000;0.000;2023-11-21T03:02:56;20.90;55.30
66708;DHT22;53622;0.000;0.000;2023-11-21T03:05:26;21.00;55.30
66708;DHT22;53622;0.000;0.000;2023-11-21T03:07:56;20.90;55.20
66708;DHT22;53622;0.000;0.000;2023-11-21T03:10:26;20.90;55.20
66708;DHT22;53622;0.000;0.000;2023-11-21T03:12:57;20.90;55.20
66708;DHT22;53622;0.000;0.000;2023-11-21T03:15:25;20.90;55.20
66708;DHT22;53622;0.000;0.000;2023-11-21T03:17:54;20.90;55.20
66708;DHT22;53622;0.000;0.000;2023-11-21T03:20:23;20.90;55.20
66708;DHT22;53622;0.000;0.000;2023-11-21T03:22:53;20.90;55.20
66708;DHT22;53622;0.000;0.000;2023-11-21T03:25:21;20.90;55.20
66708;DHT22;53622;0.000;0.000;2023-11-21T03:27:51;20.90;55.10
66708;DHT22;53622;0.000;0.000;2023-11-21T03:30:22;20.90;55.10
66708;DHT22;53622;0.000;0.000;2023-11-21T03:32:50;20.90;55.10
66708;DHT22;53622;0.000;0.000;2023-11-21T03:35:20;20.90;55.20
66708;DHT22;53622;0.000;0.000;2023-11-21T03:37:49;20.90;55.30
66708;DHT22;53622;0.000;0.000;2023-11-21T03:40:18;20.90;55.20
66708;DHT22;53622;0.000;0.000;2023-11-21T03:42:49;20.90;55.20
66708;DHT22;53622;0.000;0.000;2023-11-21T03:45:22;20.90;55.30
66708;DHT22;53622;0.000;0.000;2023-11-21T03:47:50;20.90;55.20
66708;DHT22;53622;0.000;0.000;2023-11-21T03:50:19;20.90;55.20
66708;DHT22;53622;0.000;0.000;2023-11-21T03:52:48;20.90;55.10
66708;DHT22;53622;0.000;0.000;2023-11-21T03:55:17;20.90;55.10
66708;DHT22;53622;0.000;0.000;2023-11-21T03:57:45;20.90;55.00
66708;DHT22;53622;0.000;0.000;2023-11-21T04:00:14;20.90;55.20
66708;DHT22;53622;0.000;0.000;2023-11-21T04:02:45;20.90;55.30
66708;DHT22;53622;0.000;0.000;2023-11-21T04:05:15;20.90;55.20
66708;DHT22;53622;0.000;0.000;2023-11-21T04:07:43;20.90;55.20
66708;DHT22;53622;0.000;0.000;2023-11-21T04:10:12;20.90;55.20
66708;DHT22;53622;0.000;0.000;2023-11-21T04:12:41;20.80;55.30
66708;DHT22;53622;0.000;0.000;2023-11-21T04:15:10;20.80;55.30
66708;DHT22;53622;0.000;0.000;2023-11-21T04:17:40;20.80;55.30
66708;DHT22;53622;0.000;0.000;2023-11-21T04:20:10;20.80;55.30
66708;DHT22;53622;0.000;0.000;2023-11-21T04:22:39;20.80;55.20
66708;DHT22;53622;0.000;0.000;2023-11-21T04:25:13;20.80;55.20
66708;DHT22;53622;0.000;0.000;2023-11-21T04:27:44;20.80;55.20
66708;DHT22;53622;0.000;0.000;2023-11-21T04:30:13;20.80;55.10
66708;DHT22;53622;0.000;0.000;2023-11-21T04:32:42;20.80;55.10
66708;DHT22;53622;0.000;0.000;2023-11-21T04:35:12;20.80;55.10
66708;DHT22;53622;0.000;0.000;2023-11-21T04:37:42;20.80;55.20
66708;DHT22;53622;0.000;0.000;2023-11-21T04:40:11;20.80;55.20
66708;DHT22;53622;0.000;0.000;2023-11-21T04:42:40;20.80;55.20
66708;DHT22;53622;0.000;0.000;2023-11-21T04:45:09;20.80;55.20
66708;DHT22;53622;0.000;0.000;2023-11-21T04:47:40;20.80;55.20
66708;DHT22;53622;0.000;0.000;2023-11-21T04:50:09;20.80;55.10
66708;DHT22;53622;0.000;0.000;2023-11-21T04:52:39;20.80;55.30
66708;DHT22;53622;0.000;0.000;2023-11-21T04:55:08;20.70;55.20
66708;DHT22;53622;0.000;0.000;2023-11-21T04:57:38;20.80;55.20
66708;DHT22;53622;0.000;0.000;2023-11-21T05:00:10;20.70;55.20
66708;DHT22;53622;0.000;0.000;2023-11-21T05:02:40;20.70;55.30
66708;DHT22;53622;0.000;0.000;2023-11-21T05:05:12;20.70;55.20
66708;DHT22;53622;0.000;0.000;2023-11-21T05:07:44;20.70;55.20
66708;DHT22;53622;0.000;0.000;2023-11-21T05:10:12;20.70;55.20
66708;DHT22;53622;0.000;0.000;2023-11-21T05:12:42;20.70;55.20
66708;DHT22;53622;0.000;0.000;2023-11-21T05:15:14;20.70;55.20
66708;DHT22;53622;0.000;0.000;2023-11-21T05:17:45;20.70;55.10
66708;DHT22;53622;0.000;0.000;2023-11-21T05:20:15;20.70;55.10
66708;DHT22;53622;0.000;0.000;2023-11-21T05:22:50;20.70;58.30
66708;DHT22;53622;0.000;0.000;2023-11-21T05:25:19;20.70;55.20
66708;DHT22;53622;0.000;0.000;2023-11-21T05:27:48;20.70;55.10
66708;DHT22;53622;0.000;0.000;2023-11-21T05:30:16;20.70;55.00
66708;DHT22;53622;0.000;0.000;2023-11-21T05:32:45;20.70;55.20
66708;DHT22;53622;0.000;0.000;2023-11-21T05:35:15;20.70;55.50
66708;DHT22;53622;0.000;0.000;2023-11-21T05:37:45;20.70;55.70
66708;DHT22;53622;0.000;0.000;2023-11-21T05:40:16;20.70;55.70
66708;DHT22;53622;0.000;0.000;2023-11-21T05:42:45;20.70;55.70
66708;DHT22;53622;0.000;0.000;2023-11-21T05:45:14;20.70;56.00
66708;DHT22;53622;0.000;0.000;2023-11-21T05:47:44;20.80;55.90
66708;DHT22;53622;0.000;0.000;2023-11-21T05:50:15;20.80;55.90
66708;DHT22;53622;0.000;0.000;2023-11-21T05:52:45;20.70;56.00
66708;DHT22;53622;0.000;0.000;2023-11-21T05:55:16;20.70;56.10
66708;DHT22;53622;0.000;0.000;2023-11-21T05:57:47;20.70;56.10
66708;DHT22;53622;0.000;0.000;2023-11-21T06:00:16;20.70;56.10
66708;DHT22;53622;0.000;0.000;2023-11-21T06:02:49;20.70;56.10
66708;DHT22;53622;0.000;0.000;2023-11-21T06:05:21;20.70;56.10
66708;DHT22;53622;0.000;0.000;2023-11-21T06:07:51;20.60;56.20
66708;DHT22;53622;0.000;0.000;2023-11-21T06:10:22;20.70;56.10
66708;DHT22;53622;0.000;0.000;2023-11-21T06:12:52;20.70;56.20
66708;DHT22;53622;0.000;0.000;2023-11-21T06:15:21;20.70;56.20
66708;DHT22;53622;0.000;0.000;2023-11-21T06:17:51;20.70;56.10
66708;DHT22;53622;0.000;0.000;2023-11-21T06:20:21;20.60;56.10
66708;DHT22;53622;0.000;0.000;2023-11-21T06:22:51;20.60;56.60
66708;DHT22;53622;0.000;0.000;2023-11-21T06:25:21;20.60;55.80
66708;DHT22;53622;0.000;0.000;2023-11-21T06:27:50;20.60;55.90
66708;DHT22;53622;0.000;0.000;2023-11-21T06:30:21;20.60;55.90
66708;DHT22;53622;0.000;0.000;2023-11-21T06:32:51;20.60;55.80
66708;DHT22;53622;0.000;0.000;2023-11-21T06:35:21;20.60;55.80
66708;DHT22;53622;0.000;0.000;2023-11-21T06:37:50;20.70;55.80
66708;DHT22;53622;0.000;0.000;2023-11-21T06:40:21;20.60;55.60
66708;DHT22;53622;0.000;0.000;2023-11-21T06:42:49;20.70;55.50
66708;DHT22;53622;0.000;0.000;2023-11-21T06:45:18;20.60;55.70
66708;DHT22;53622;0.000;0.000;2023-11-21T06:47:48;20.60;55.80
66708;DHT22;53622;0.000;0.000;2023-11-21T06:50:18;20.60;56.00
66708;DHT22;53622;0.000;0.000;2023-11-21T06:52:46;20.60;55.90
66708;DHT22;53622;0.000;0.000;2023-11-21T06:55:16;20.60;55.90
66708;DHT22;53622;0.000;0.000;2023-11-21T06:57:46;20.60;55.90
66708;DHT22;53622;0.000;0.000;2023-11-21T07:00:16;20.60;55.80
66708;DHT22;53622;0.000;0.000;2023-11-21T07:02:46;20.60;55.70
66708;DHT22;53622;0.000;0.000;2023-11-21T07:05:15;20.60;55.70
66708;DHT22;53622;0.000;0.000;2023-11-21T07:07:48;20.50;55.90
66708;DHT22;53622;0.000;0.000;2023-11-21T07:10:18;20.50;55.80
66708;DHT22;53622;0.000;0.000;2023-11-21T07:12:48;20.50;55.80
66708;DHT22;53622;0.000;0.000;2023-11-21T07:15:18;20.50;55.80
66708;DHT22;53622;0.000;0.000;2023-11-21T07:17:47;20.50;55.90
66708;DHT22;53622;0.000;0.000;2023-11-21T07:20:16;20.50;55.90
66708;DHT22;53622;0.000;0.000;2023-11-21T07:22:45;20.50;55.90
66708;DHT22;53622;0.000;0.000;2023-11-21T07:25:14;20.50;55.80
66708;DHT22;53622;0.000;0.000;2023-11-21T07:27:43;20.50;55.90
66708;DHT22;53622;0.000;0.000;2023-11-21T07:30:14;20.40;55.90
66708;DHT22;53622;0.000;0.000;2023-11-21T07:32:43;20.40;55.90
66708;DHT22;53622;0.000;0.000;2023-11-21T07:35:12;20.40;55.90
66708;DHT22;53622;0.000;0.000;2023-11-21T07:37:41;20.40;55.90
66708;DHT22;53622;0.000;0.000;2023-11-21T07:40:11;20.40;55.90
66708;DHT22;53622;0.000;0.000;2023-11-21T07:42:41;20.40;55.80
66708;DHT22;53622;0.000;0.000;2023-11-21T07:45:11;20.40;55.90
66708;DHT22;53622;0.000;0.000;2023-11-21T07:47:41;20.40;55.90
66708;DHT22;53622;0.000;0.000;2023-11-21T07:50:10;20.40;55.90
66708;DHT22;53622;0.000;0.000;2023-11-21T07:52:41;20.40;55.80
66708;DHT22;53622;0.000;0.000;2023-11-21T07:55:09;20.40;55.80
66708;DHT22;53622;0.000;0.000;2023-11-21T07:57:39;20.30;55.80
66708;DHT22;53622;0.000;0.000;2023-11-21T08:00:08;20.40;55.90
66708;DHT22;53622;0.000;0.000;2023-11-21T08:02:41;20.40;55.80
66708;DHT22;53622;0.000;0.000;2023-11-21T08:05:13;20.40;55.80
66708;DHT22;53622;0.000;0.000;2023-11-21T08:07:54;20.30;55.80
66708;DHT22;53622;0.000;0.000;2023-11-21T08:10:23;20.40;55.80
66708;DHT22;53622;0.000;0.000;2023-11-21T08:12:52;20.30;55.80
66708;DHT22;53622;0.000;0.000;2023-11-21T08:15:21;20.40;55.70
66708;DHT22;53622;0.000;0.000;2023-11-21T08:17:51;20.40;55.70
66708;DHT22;53622;0.000;0.000;2023-11-21T08:20:20;20.40;55.60
66708;DHT22;53622;0.000;0.000;2023-11-21T08:22:50;20.30;55.80
66708;DHT22;53622;0.000;0.000;2023-11-21T08:25:20;20.40;55.70
66708;DHT22;53622;0.000;0.000;2023-11-21T08:27:49;20.30;55.70
66708;DHT22;53622;0.000;0.000;2023-11-21T08:30:18;20.30;55.70
66708;DHT22;53622;0.000;0.000;2023-11-21T08:32:48;20.30;55.60
66708;DHT22;53622;0.000;0.000;2023-11-21T08:35:18;20.30;55.70
66708;DHT22;53622;0.000;0.000;2023-11-21T08:37:47;20.30;55.70
66708;DHT22;53622;0.000;0.000;2023-11-21T08:40:16;20.30;55.70
66708;DHT22;53622;0.000;0.000;2023-11-21T08:42:45;20.30;55.50
66708;DHT22;53622;0.000;0.000;2023-11-21T08:45:14;20.30;55.60
66708;DHT22;53622;0.000;0.000;2023-11-21T08:47:45;20.30;55.60
66708;DHT22;53622;0.000;0.000;2023-11-21T08:50:14;20.30;55.70
66708;DHT22;53622;0.000;0.000;2023-11-21T08:52:45;20.30;55.70
66708;DHT22;53622;0.000;0.000;2023-11-21T08:55:14;20.30;55.70
66708;DHT22;53622;0.000;0.000;2023-11-21T08:57:44;20.30;55.70
66708;DHT22;53622;0.000;0.000;2023-11-21T09:00:14;20.30;55.60
66708;DHT22;53622;0.000;0.000;2023-11-21T09:02:45;20.20;55.60
66708;DHT22;53622;0.000;0.000;2023-11-21T09:05:14;20.30;55.60
66708;DHT22;53622;0.000;0.000;2023-11-21T09:07:45;20.30;55.70
66708;DHT22;53622;0.000;0.000;2023-11-21T09:10:16;20.30;55.70
66708;DHT22;53622;0.000;0.000;2023-11-21T09:12:45;20.30;55.60
66708;DHT22;53622;0.000;0.000;2023-11-21T09:15:13;20.30;55.70
66708;DHT22;53622;0.000;0.000;2023-11-21T09:17:42;20.30;55.60
66708;DHT22;53622;0.000;0.000;2023-11-21T09:20:12;20.20;55.40
66708;DHT22;53622;0.000;0.000;2023-11-21T09:22:42;20.20;55.50
66708;DHT22;53622;0.000;0.000;2023-11-21T09:25:15;20.30;55.50
66708;DHT22;53622;0.000;0.000;2023-11-21T09:27:45;20.30;55.50
66708;DHT22;53622;0.000;0.000;2023-11-21T09:30:14;20.30;55.40
66708;DHT22;53622;0.000;0.000;2023-11-21T09:32:43;20.30;55.50
66708;DHT22;53622;0.000;0.000;2023-11-21T09:35:13;20.20;55.40
66708;DHT22;53622;0.000;0.000;2023-11-21T09:37:43;20.20;55.50
66708;DHT22;53622;0.000;0.000;2023-11-21T09:40:21;20.20;55.40
66708;DHT22;53622;0.000;0.000;2023-11-21T09:42:54;20.20;55.50
66708;DHT22;53622;0.000;0.000;2023-11-21T09:45:28;20.20;55.50
66708;DHT22;53622;0.000;0.000;2023-11-21T09:47:59;20.20;55.50
66708;DHT22;53622;0.000;0.000;2023-11-21T09:50:28;20.20;55.40
66708;DHT22;53622;0.000;0.000;2023-11-21T09:53:02;20.20;55.30
66708;DHT22;53622;0.000;0.000;2023-11-21T09:55:37;20.20;55.40
66708;DHT22;53622;0.000;0.000;2023-11-21T09:58:09;20.20;55.40
66708;DHT22;53622;0.000;0.000;2023-11-21T10:00:40;20.20;55.40
66708;DHT22;53622;0.000;0.000;2023-11-21T10:03:10;20.20;55.40
66708;DHT22;53622;0.000;0.000;2023-11-21T10:05:40;20.20;55.50
66708;DHT22;53622;0.000;0.000;2023-11-21T10:08:09;20.20;55.40
66708;DHT22;53622;0.000;0.000;2023-11-21T10:10:43;20.20;55.40
66708;DHT22;53622;0.000;0.000;2023-11-21T10:13:13;20.20;55.40
66708;DHT22;53622;0.000;0.000;2023-11-21T10:15:48;20.20;55.30
66708;DHT22;53622;0.000;0.000;2023-11-21T10:18:17;20.20;55.40
66708;DHT22;53622;0.000;0.000;2023-11-21T10:20:46;20.20;55.40
66708;DHT22;53622;0.000;0.000;2023-11-21T10:23:21;20.20;55.30
66708;DHT22;53622;0.000;0.000;2023-11-21T10:25:52;20.20;55.40
66708;DHT22;53622;0.000;0.000;2023-11-21T10:28:24;20.20;55.30
66708;DHT22;53622;0.000;0.000;2023-11-21T10:30:53;20.20;55.30
66708;DHT22;53622;0.000;0.000;2023-11-21T10:33:27;20.20;55.30
66708;DHT22;53622;0.000;0.000;2023-11-21T10:35:57;20.20;55.30
66708;DHT22;53622;0.000;0.000;2023-11-21T10:38:27;20.20;55.30
66708;DHT22;53622;0.000;0.000;2023-11-21T10:40:59;20.20;55.30
66708;DHT22;53622;0.000;0.000;2023-11-21T10:43:28;20.20;55.30
66708;DHT22;53622;0.000;0.000;2023-11-21T10:45:59;20.20;55.20
66708;DHT22;53622;0.000;0.000;2023-11-21T10:48:28;20.20;55.90
66708;DHT22;53622;0.000;0.000;2023-11-21T10:50:56;20.20;55.30
66708;DHT22;53622;0.000;0.000;2023-11-21T10:53:28;20.20;55.30
66708;DHT22;53622;0.000;0.000;2023-11-21T10:56:06;20.20;55.30
66708;DHT22;53622;0.000;0.000;2023-11-21T10:58:38;20.20;55.30
66708;DHT22;53622;0.000;0.000;2023-11-21T11:01:08;20.20;55.50
66708;DHT22;53622;0.000;0.000;2023-11-21T11:03:39;20.20;55.40
66708;DHT22;53622;0.000;0.000;2023-11-21T11:06:08;20.20;55.30
66708;DHT22;53622;0.000;0.000;2023-11-21T11:08:39;20.20;55.40
66708;DHT22;53622;0.000;0.000;2023-11-21T11:11:10;20.20;55.30
66708;DHT22;53622;0.000;0.000;2023-11-21T11:13:43;20.20;55.30
66708;DHT22;53622;0.000;0.000;2023-11-21T11:16:13;20.20;55.30
66708;DHT22;53622;0.000;0.000;2023-11-21T11:18:45;20.10;55.30
66708;DHT22;53622;0.000;0.000;2023-11-21T11:21:27;20.10;55.30
66708;DHT22;53622;0.000;0.000;2023-11-21T11:24:18;20.10;55.30
66708;DHT22;53622;0.000;0.000;2023-11-21T11:26:58;20.10;55.40
66708;DHT22;53622;0.000;0.000;2023-11-21T11:29:34;20.10;55.40
66708;DHT22;53622;0.000;0.000;2023-11-21T11:32:21;20.10;55.40
66708;DHT22;53622;0.000;0.000;2023-11-21T11:34:59;20.10;55.40
66708;DHT22;53622;0.000;0.000;2023-11-21T11:37:30;20.10;55.40
66708;DHT22;53622;0.000;0.000;2023-11-21T11:40:00;20.10;55.40
66708;DHT22;53622;0.000;0.000;2023-11-21T11:42:30;20.10;55.40
66708;DHT22;53622;0.000;0.000;2023-11-21T11:45:00;20.10;55.40
66708;DHT22;53622;0.000;0.000;2023-11-21T11:47:32;20.10;55.30
66708;DHT22;53622;0.000;0.000;2023-11-21T11:50:04;20.10;55.30
66708;DHT22;53622;0.000;0.000;2023-11-21T11:52:37;20.10;55.40
66708;DHT22;53622;0.000;0.000;2023-11-21T11:55:08;20.10;55.40
66708;DHT22;53622;0.000;0.000;2023-11-21T11:57:40;20.10;55.30
66708;DHT22;53622;0.000;0.000;2023-11-21T12:00:15;20.10;55.30
66708;DHT22;53622;0.000;0.000;2023-11-21T12:02:54;20.10;55.30
66708;DHT22;53622;0.000;0.000;2023-11-21T12:05:25;20.00;55.30
66708;DHT22;53622;0.000;0.000;2023-11-21T12:07:56;20.00;55.40
66708;DHT22;53622;0.000;0.000;2023-11-21T12:10:27;20.00;55.30
66708;DHT22;53622;0.000;0.000;2023-11-21T12:12:58;20.00;55.40
66708;DHT22;53622;0.000;0.000;2023-11-21T12:15:29;20.00;55.40
66708;DHT22;53622;0.000;0.000;2023-11-21T12:17:58;20.00;55.40
66708;DHT22;53622;0.000;0.000;2023-11-21T12:20:28;20.00;55.40
66708;DHT22;53622;0.000;0.000;2023-11-21T12:22:58;20.00;55.40
66708;DHT22;53622;0.000;0.000;2023-11-21T12:25:29;20.00;55.40
66708;DHT22;53622;0.000;0.000;2023-11-21T12:28:01;20.00;55.40
66708;DHT22;53622;0.000;0.000;2023-11-21T12:30:33;20.00;55.40
66708;DHT22;53622;0.000;0.000;2023-11-21T12:33:04;20.00;55.40
66708;DHT22;53622;0.000;0.000;2023-11-21T12:35:35;20.00;55.40
66708;DHT22;53622;0.000;0.000;2023-11-21T12:38:04;20.00;55.40
66708;DHT22;53622;0.000;0.000;2023-11-21T12:40:33;20.00;55.40
66708;DHT22;53622;0.000;0.000;2023-11-21T12:43:04;20.00;55.50
66708;DHT22;53622;0.000;0.000;2023-11-21T12:45:33;20.00;55.40
66708;DHT22;53622;0.000;0.000;2023-11-21T12:48:03;20.00;55.50
66708;DHT22;53622;0.000;0.000;2023-11-21T12:50:37;20.00;55.50
66708;DHT22;53622;0.000;0.000;2023-11-21T12:53:07;20.00;55.40
66708;DHT22;53622;0.000;0.000;2023-11-21T12:55:38;20.00;55.40
66708;DHT22;53622;0.000;0.000;2023-11-21T12:58:10;20.00;55.40
66708;DHT22;53622;0.000;0.000;2023-11-21T13:00:42;20.00;55.40
66708;DHT22;53622;0.000;0.000;2023-11-21T13:03:12;20.00;55.40
66708;DHT22;53622;0.000;0.000;2023-11-21T13:05:47;20.00;55.50
66708;DHT22;53622;0.000;0.000;2023-11-21T13:08:20;19.90;55.50
66708;DHT22;53622;0.000;0.000;2023-11-21T13:10:51;19.90;55.50
66708;DHT22;53622;0.000;0.000;2023-11-21T13:13:23;19.90;55.40
66708;DHT22;53622;0.000;0.000;2023-11-21T13:15:54;19.90;55.40
66708;DHT22;53622;0.000;0.000;2023-11-21T13:18:24;19.90;55.40
66708;DHT22;53622;0.000;0.000;2023-11-21T13:20:55;20.00;55.40
66708;DHT22;53622;0.000;0.000;2023-11-21T13:23:25;20.00;55.40
66708;DHT22;53622;0.000;0.000;2023-11-21T13:25:54;19.90;55.30
66708;DHT22;53622;0.000;0.000;2023-11-21T13:28:34;19.90;55.30
66708;DHT22;53622;0.000;0.000;2023-11-21T13:31:05;19.90;55.40
66708;DHT22;53622;0.000;0.000;2023-11-21T13:33:49;19.90;55.50
66708;DHT22;53622;0.000;0.000;2023-11-21T13:36:24;19.90;55.50
66708;DHT22;53622;0.000;0.000;2023-11-21T13:38:58;19.90;55.50
66708;DHT22;53622;0.000;0.000;2023-11-21T13:41:32;19.90;55.50
66708;DHT22;53622;0.000;0.000;2023-11-21T13:44:02;19.90;55.50
66708;DHT22;53622;0.000;0.000;2023-11-21T13:46:43;19.90;55.50
66708;DHT22;53622;0.000;0.000;2023-11-21T13:49:13;19.90;55.40
66708;DHT22;53622;0.000;0.000;2023-11-21T13:51:44;19.90;55.50
66708;DHT22;53622;0.000;0.000;2023-11-21T13:54:15;19.90;55.50
66708;DHT22;53622;0.000;0.000;2023-11-21T13:56:46;19.90;55.50
66708;DHT22;53622;0.000;0.000;2023-11-21T13:59:17;19.90;55.50
66708;DHT22;53622;0.000;0.000;2023-11-21T14:01:51;19.80;55.50
66708;DHT22;53622;0.000;0.000;2023-11-21T14:04:26;19.90;55.50
66708;DHT22;53622;0.000;0.000;2023-11-21T14:07:18;19.80;55.50
66708;DHT22;53622;0.000;0.000;2023-11-21T14:09:58;19.80;55.50
66708;DHT22;53622;0.000;0.000;2023-11-21T14:12:27;19.80;55.50
66708;DHT22;53622;0.000;0.000;2023-11-21T14:15:07;19.80;55.50
66708;DHT22;53622;0.000;0.000;2023-11-21T14:17:37;19.80;55.50
66708;DHT22;53622;0.000;0.000;2023-11-21T14:20:09;19.80;55.40
66708;DHT22;53622;0.000;0.000;2023-11-21T14:22:44;19.80;55.50
66708;DHT22;53622;0.000;0.000;2023-11-21T14:25:14;19.80;55.40
66708;DHT22;53622;0.000;0.000;2023-11-21T14:27:44;19.80;55.50
66708;DHT22;53622;0.000;0.000;2023-11-21T14:30:15;19.80;55.60
66708;DHT22;53622;0.000;0.000;2023-11-21T14:32:46;19.80;55.60
66708;DHT22;53622;0.000;0.000;2023-11-21T14:35:15;19.80;55.60
66708;DHT22;53622;0.000;0.000;2023-11-21T14:37:45;19.80;55.50
66708;DHT22;53622;0.000;0.000;2023-11-21T14:40:13;19.80;55.40
66708;DHT22;53622;0.000;0.000;2023-11-21T14:42:45;19.80;55.40
66708;DHT22;53622;0.000;0.000;2023-11-21T14:45:16;19.80;55.40
66708;DHT22;53622;0.000;0.000;2023-11-21T14:47:47;19.80;55.40
66708;DHT22;53622;0.000;0.000;2023-11-21T14:50:24;19.80;55.40
66708;DHT22;53622;0.000;0.000;2023-11-21T14:53:12;19.80;55.60
66708;DHT22;53622;0.000;0.000;2023-11-21T14:55:40;19.80;55.70
66708;DHT22;53622;0.000;0.000;2023-11-21T14:58:22;19.80;55.70
66708;DHT22;53622;0.000;0.000;2023-11-21T15:00:56;19.80;55.70
66708;DHT22;53622;0.000;0.000;2023-11-21T15:03:27;19.70;55.80
66708;DHT22;53622;0.000;0.000;2023-11-21T15:06:17;19.70;55.90
66708;DHT22;53622;0.000;0.000;2023-11-21T15:08:55;19.80;56.10
66708;DHT22;53622;0.000;0.000;2023-11-21T15:11:44;19.70;56.10
66708;DHT22;53622;0.000;0.000;2023-11-21T15:14:14;19.70;56.20
66708;DHT22;53622;0.000;0.000;2023-11-21T15:16:50;19.80;56.10
66708;DHT22;53622;0.000;0.000;2023-11-21T15:19:21;19.70;56.10
66708;DHT22;53622;0.000;0.000;2023-11-21T15:21:53;19.70;56.00
66708;DHT22;53622;0.000;0.000;2023-11-21T15:24:22;19.70;56.00
66708;DHT22;53622;0.000;0.000;2023-11-21T15:26:52;19.70;55.90
66708;DHT22;53622;0.000;0.000;2023-11-21T15:29:21;19.80;56.00
66708;DHT22;53622;0.000;0.000;2023-11-21T15:31:51;19.80;56.10
66708;DHT22;53622;0.000;0.000;2023-11-21T15:34:23;19.80;56.00
66708;DHT22;53622;0.000;0.000;2023-11-21T15:36:53;19.80;56.10
66708;DHT22;53622;0.000;0.000;2023-11-21T15:39:22;19.90;56.10
66708;DHT22;53622;0.000;0.000;2023-11-21T15:41:58;19.90;56.10
66708;DHT22;53622;0.000;0.000;2023-11-21T15:44:27;20.00;56.10
66708;DHT22;53622;0.000;0.000;2023-11-21T15:46:58;20.00;55.90
66708;DHT22;53622;0.000;0.000;2023-11-21T15:49:27;20.00;55.90
66708;DHT22;53622;0.000;0.000;2023-11-21T15:51:57;20.10;55.80
66708;DHT22;53622;0.000;0.000;2023-11-21T15:54:27;20.20;55.60
66708;DHT22;53622;0.000;0.000;2023-11-21T15:56:57;20.20;55.60
66708;DHT22;53622;0.000;0.000;2023-11-21T15:59:27;20.20;55.50
66708;DHT22;53622;0.000;0.000;2023-11-21T16:02:01;20.20;55.40
66708;DHT22;53622;0.000;0.000;2023-11-21T16:04:32;20.30;55.50
66708;DHT22;53622;0.000;0.000;2023-11-21T16:07:04;20.30;55.50
66708;DHT22;53622;0.000;0.000;2023-11-21T16:09:34;20.30;55.40
66708;DHT22;53622;0.000;0.000;2023-11-21T16:12:06;20.40;55.50
66708;DHT22;53622;0.000;0.000;2023-11-21T16:14:36;20.40;55.40
66708;DHT22;53622;0.000;0.000;2023-11-21T16:17:11;20.40;55.60
66708;DHT22;53622;0.000;0.000;2023-11-21T16:19:40;20.50;55.90
66708;DHT22;53622;0.000;0.000;2023-11-21T16:22:10;20.60;55.90
66708;DHT22;53622;0.000;0.000;2023-11-21T16:24:39;20.60;56.10
66708;DHT22;53622;0.000;0.000;2023-11-21T16:27:07;20.60;56.30
66708;DHT22;53622;0.000;0.000;2023-11-21T16:29:38;20.70;56.50
66708;DHT22;53622;0.000;0.000;2023-11-21T16:32:09;20.90;56.70
66708;DHT22;53622;0.000;0.000;2023-11-21T16:34:39;20.90;56.60
66708;DHT22;53622;0.000;0.000;2023-11-21T16:37:08;21.00;56.60